Time;durP1;ratioP1;P1;durP2;ratioP2;P2;SDS_P1;SDS_P2;PMS_P1;PMS_P2;Temp;Humidity;BMP_temperature;BMP_pressure;BME280_temperature;BME280_humidity;BME280_pressure;Samples;Min_cycle;Max_cycle;Signal;HPM_P1;HPM_P2
2022/06/10 00:00:30;;;;;;;18.48;7.38;;;;;;;29.88;48.80;97123.38;4891617;29;20132;-67
2022/06/10 00:03:15;;;;;;;21.40;8.07;;;;;;;29.83;46.59;97115.22;4891862;29;20052;-66
2022/06/10 00:06:06;;;;;;;21.38;7.78;;;;;;;29.89;49.21;97118.88;4906745;29;20052;-66
2022/06/10 00:08:49;;;;;;;16.67;7.80;;;;;;;29.89;49.33;97122.34;4903712;29;20157;-67
2022/06/10 00:11:37;;;;;;;21.17;7.68;;;;;;;29.91;51.00;97115.00;4891663;29;20790;-67
2022/06/10 00:14:19;;;;;;;17.13;8.23;;;;;;;29.91;50.61;97112.34;4891505;29;20425;-67
2022/06/10 00:17:09;;;;;;;19.58;9.43;;;;;;;29.90;43.69;97129.28;4891642;29;20074;-66
2022/06/10 00:19:51;;;;;;;24.05;9.35;;;;;;;29.92;46.48;97121.94;4873078;29;20095;-68
2022/06/10 00:22:40;;;;;;;19.95;8.63;;;;;;;29.99;48.05;97124.63;4902143;29;20131;-67
2022/06/10 00:25:30;;;;;;;18.23;8.38;;;;;;;30.03;46.39;97123.97;4890949;29;20540;-67
2022/06/10 00:28:14;;;;;;;19.20;8.90;;;;;;;30.07;47.52;97131.56;4891153;29;20044;-67
2022/06/10 00:31:04;;;;;;;28.60;8.02;;;;;;;30.06;44.03;97138.72;4890570;29;20049;-65
2022/06/10 00:33:53;;;;;;;20.52;8.52;;;;;;;30.12;43.09;97147.69;4854794;29;20125;-66
2022/06/10 00:36:35;;;;;;;19.83;8.93;;;;;;;30.16;49.00;97151.56;4859723;29;20056;-65
2022/06/10 00:39:24;;;;;;;19.85;7.97;;;;;;;30.12;45.29;97158.31;4855826;29;20079;-66
2022/06/10 00:42:07;;;;;;;16.05;8.10;;;;;;;30.14;44.83;97157.09;4862799;29;20038;-65
2022/06/10 00:44:59;;;;;;;30.67;8.73;;;;;;;30.18;43.80;97165.44;4872111;29;20117;-65
2022/06/10 00:47:48;;;;;;;26.25;8.05;;;;;;;30.23;48.03;97161.16;4885075;29;20052;-65
2022/06/10 00:50:44;;;;;;;20.08;8.02;;;;;;;30.21;46.89;97167.69;4874677;29;20045;-66
2022/06/10 00:53:23;;;;;;;27.45;8.07;;;;;;;30.23;48.84;97165.66;4871833;29;20078;-65
2022/06/10 00:56:21;;;;;;;20.10;7.30;;;;;;;30.21;48.65;97167.69;4883304;29;20446;-67
2022/06/10 00:59:17;;;;;;;18.35;7.20;;;;;;;30.25;50.77;97174.25;4910653;29;20420;-67
2022/06/10 01:02:17;;;;;;;25.65;7.97;;;;;;;30.20;51.45;97176.69;4909251;29;20086;-66
2022/06/10 01:05:09;;;;;;;25.17;7.60;;;;;;;30.20;50.87;97176.69;4909946;29;20075;-67
2022/06/10 01:08:04;;;;;;;19.27;8.13;;;;;;;30.21;52.08;97178.31;4909454;29;20052;-66
2022/06/10 01:11:14;;;;;;;15.73;6.93;;;;;;;30.22;53.33;97175.47;4909643;29;20143;-67
2022/06/10 01:14:05;;;;;;;22.70;7.93;;;;;;;30.20;55.82;97182.81;4909480;29;20055;-67
2022/06/10 01:17:00;;;;;;;29.08;8.80;;;;;;;30.10;69.84;97182.41;4909545;29;20044;-67
2022/06/10 01:20:03;;;;;;;19.95;7.95;;;;;;;30.07;66.97;97182.03;4909048;29;20048;-66
2022/06/10 01:22:55;;;;;;;19.08;8.43;;;;;;;30.04;67.27;97186.72;4881402;29;20132;-67
2022/06/10 01:25:59;;;;;;;22.65;8.02;;;;;;;30.08;56.11;97184.50;4891085;29;20052;-68
2022/06/10 01:29:07;;;;;;;17.65;7.82;;;;;;;30.28;59.29;97189.75;4890348;29;20063;-65
2022/06/10 01:32:08;;;;;;;22.35;9.35;;;;;;;30.36;61.45;97192.19;4890209;29;20493;-65
2022/06/10 01:34:59;;;;;;;16.52;7.30;;;;;;;30.36;55.10;97184.22;4890069;29;20142;-65
2022/06/10 01:37:59;;;;;;;16.35;7.50;;;;;;;30.55;58.50;97186.06;4890216;29;20048;-66
2022/06/10 01:41:09;;;;;;;17.15;7.68;;;;;;;30.61;53.60;97184.41;4877038;29;20064;-67
2022/06/10 01:44:09;;;;;;;18.77;8.85;;;;;;;30.73;51.65;97188.84;4871574;29;20049;-66
2022/06/10 01:47:07;;;;;;;22.77;9.13;;;;;;;30.98;45.79;97196.94;4891885;29;20072;-66
2022/06/10 01:49:56;;;;;;;30.25;9.93;;;;;;;31.33;50.71;97186.78;4889847;29;20048;-66
2022/06/10 01:53:08;;;;;;;16.25;7.95;;;;;;;31.56;52.45;97188.88;4896028;29;20048;-65
2022/06/10 01:56:11;;;;;;;24.10;8.27;;;;;;;31.79;49.94;97185.69;4868392;29;20076;-66
2022/06/10 01:59:06;;;;;;;26.92;8.73;;;;;;;32.08;44.54;97187.69;4921013;29;20066;-67
2022/06/10 02:01:55;;;;;;;17.85;8.00;;;;;;;32.51;52.19;97181.56;4913365;29;20048;-67
2022/06/10 02:04:51;;;;;;;21.58;8.90;;;;;;;32.68;51.82;97187.94;4894648;29;20058;-66
2022/06/10 02:07:47;;;;;;;22.13;9.02;;;;;;;32.89;49.39;97192.03;4890005;29;20378;-67
2022/06/10 02:10:44;;;;;;;31.52;10.35;;;;;;;33.12;53.17;97188.69;4871759;29;20064;-67
2022/06/10 02:13:57;;;;;;;21.60;9.02;;;;;;;33.14;45.73;97197.25;4871179;29;20053;-66
2022/06/10 02:16:54;;;;;;;29.00;10.30;;;;;;;33.40;47.81;97212.97;4870377;29;20080;-67
2022/06/10 02:19:58;;;;;;;26.13;11.02;;;;;;;33.61;50.00;97214.28;4857926;29;20056;-66
2022/06/10 02:22:42;;;;;;;29.70;9.60;;;;;;;33.82;47.42;97224.50;4876260;29;20064;-67
2022/06/10 02:25:43;;;;;;;30.33;10.43;;;;;;;33.99;51.27;97220.13;4890210;29;20048;-67
2022/06/10 02:28:25;;;;;;;31.10;10.77;;;;;;;34.11;43.46;97220.94;4893446;29;20056;-68
2022/06/10 02:31:42;;;;;;;29.90;11.20;;;;;;;34.53;45.81;97213.66;4893178;29;20156;-65
2022/06/10 02:34:18;;;;;;;29.70;12.95;;;;;;;34.76;48.30;97217.38;4892798;29;20056;-66
2022/06/10 02:37:11;;;;;;;32.45;13.10;;;;;;;35.11;44.78;97210.06;4891902;29;20505;-66
2022/06/10 02:40:02;;;;;;;47.95;13.82;;;;;;;35.29;47.27;97212.59;4878563;29;20063;-67
2022/06/10 02:43:03;;;;;;;32.78;13.57;;;;;;;35.34;45.24;97213.75;4886340;29;20064;-66
2022/06/10 02:45:54;;;;;;;34.90;11.95;;;;;;;35.64;43.70;97215.09;4885155;29;20067;-67
2022/06/10 02:49:21;;;;;;;37.35;12.38;;;;;;;35.85;39.93;97213.59;4886744;29;20657;-66
2022/06/10 02:52:12;;;;;;;40.63;14.27;;;;;;;35.97;38.09;97217.03;4889661;29;20053;-67
2022/06/10 02:55:01;;;;;;;40.30;12.75;;;;;;;36.18;41.78;97209.31;4893497;29;20072;-68
2022/06/10 03:01:20;;;;;;;47.53;14.30;;;;;;;36.63;37.40;97219.94;4883571;29;20131;-67
2022/06/10 03:04:15;;;;;;;48.20;14.27;;;;;;;36.79;35.85;97221.78;4883620;29;20055;-65
2022/06/10 03:07:21;;;;;;;42.88;13.32;;;;;;;36.90;39.18;97222.72;4874109;29;20057;-66
2022/06/10 03:10:41;;;;;;;42.83;13.93;;;;;;;36.78;34.97;97226.34;4873841;29;20508;-67
2022/06/10 03:13:44;;;;;;;50.58;14.27;;;;;;;37.13;39.01;97230.56;4888219;29;20113;-65
2022/06/10 03:16:38;;;;;;;57.53;15.80;;;;;;;37.24;38.62;97237.69;4873972;29;20049;-66
2022/06/10 03:23:09;;;;;;;60.40;14.75;;;;;;;37.68;34.17;97243.00;4895519;23;20262;-67
2022/06/10 03:26:17;;;;;;;61.30;13.43;;;;;;;37.85;32.52;97246.38;4873752;29;20147;-66
2022/06/10 03:28:59;;;;;;;74.65;14.15;;;;;;;37.78;34.06;97241.22;4887107;29;20059;-65
2022/06/10 03:31:59;;;;;;;59.85;14.85;;;;;;;38.05;34.85;97241.22;4893779;29;20112;-66
2022/06/10 03:34:48;;;;;;;71.72;14.68;;;;;;;38.21;35.72;97240.28;4868538;29;20378;-65
2022/06/10 03:37:40;;;;;;;67.82;15.23;;;;;;;38.35;34.10;97245.22;4881274;29;20152;-67
2022/06/10 03:40:33;;;;;;;69.57;13.88;;;;;;;38.84;36.61;97243.13;4873050;29;20048;-65
2022/06/10 03:43:24;;;;;;;73.55;14.57;;;;;;;38.95;34.29;97240.22;4872988;29;20056;-66
2022/06/10 03:46:35;;;;;;;58.80;13.45;;;;;;;38.79;35.73;97235.03;4878189;29;20074;-66
2022/06/10 03:49:21;;;;;;;68.38;14.57;;;;;;;38.42;34.20;97237.72;4865060;29;20052;-66
2022/06/10 03:52:10;;;;;;;66.60;14.85;;;;;;;38.11;36.09;97228.63;4877091;29;20049;-66
2022/06/10 03:54:52;;;;;;;76.45;14.25;;;;;;;38.07;37.76;97235.59;4872260;29;20144;-66
2022/06/10 03:57:41;;;;;;;71.25;13.55;;;;;;;38.52;37.71;97230.56;4869050;29;20048;-65
2022/06/10 04:00:26;;;;;;;100.33;14.63;;;;;;;38.81;35.73;97232.84;4872531;29;20046;-66
2022/06/10 04:03:16;;;;;;;64.43;10.90;;;;;;;38.56;36.42;97233.53;4882203;29;20149;-66
2022/06/10 04:05:59;;;;;;;69.03;10.90;;;;;;;38.00;34.07;97238.44;4882155;29;20041;-67
2022/06/10 04:09:07;;;;;;;66.22;13.05;;;;;;;37.58;36.68;97235.63;4890758;29;20151;-65
2022/06/10 04:11:56;;;;;;;63.40;11.23;;;;;;;37.58;37.43;97238.31;4891580;29;20116;-66
2022/06/10 04:14:46;;;;;;;88.45;15.32;;;;;;;37.47;37.26;97232.03;4889607;29;20450;-66
2022/06/10 04:17:38;;;;;;;65.18;10.88;;;;;;;38.01;39.32;97234.69;4871602;29;20124;-64
2022/06/10 04:20:27;;;;;;;61.40;11.80;;;;;;;38.51;39.41;97233.50;4885352;29;20116;-63
2022/06/10 04:23:16;;;;;;;63.30;12.27;;;;;;;38.43;36.58;97237.47;4891356;29;20123;-64
2022/06/10 04:26:12;;;;;;;75.65;14.38;;;;;;;38.84;40.33;97238.53;4873989;29;20196;-65
2022/06/10 04:28:48;;;;;;;56.00;11.70;;;;;;;39.17;38.49;97241.94;4891259;29;20080;-64
2022/06/10 04:31:37;;;;;;;;;;;;;;;39.19;38.01;97240.63;4891632;29;20135;-65
2022/06/10 04:34:20;;;;;;;60.28;11.00;;;;;;;39.46;39.56;97234.25;4891129;29;20295;-65
2022/06/10 04:37:10;;;;;;;56.95;10.52;;;;;;;39.56;40.74;97235.06;4891162;29;20155;-64
2022/06/10 04:39:53;;;;;;;50.45;9.38;;;;;;;39.73;36.00;97234.84;4878111;29;20120;-64
2022/06/10 04:42:43;;;;;;;58.17;11.23;;;;;;;39.96;40.36;97233.53;4867505;29;20540;-64
2022/06/10 04:45:30;;;;;;;48.53;9.50;;;;;;;39.25;34.16;97244.13;4872348;29;20079;-63
2022/06/10 04:48:19;;;;;;;44.90;10.38;;;;;;;38.77;37.46;97242.53;4871446;29;20628;-63
2022/06/10 04:51:09;;;;;;;52.05;9.95;;;;;;;38.45;36.62;97239.91;4841690;29;20083;-64
2022/06/10 04:53:50;;;;;;;68.53;10.60;;;;;;;38.11;37.10;97239.38;4882827;29;20052;-65
2022/06/10 04:56:40;;;;;;;59.63;10.07;;;;;;;37.86;37.06;97239.94;4866354;29;20091;-64
2022/06/10 04:59:29;;;;;;;48.15;10.95;;;;;;;37.71;40.41;97231.75;4870128;29;20048;-64
2022/06/10 05:02:11;;;;;;;48.63;12.63;;;;;;;37.48;40.21;97236.34;4859208;29;20060;-64
2022/06/10 05:05:01;;;;;;;56.10;9.63;;;;;;;37.33;40.45;97246.91;4864042;29;20476;-65
2022/06/10 05:07:43;;;;;;;;;;;;;;;37.23;42.15;97245.97;4866108;29;20053;-65
2022/06/10 05:10:33;;;;;;;59.08;11.07;;;;;;;36.97;41.20;97240.28;4863076;29;19962;-65
2022/06/10 05:13:20;;;;;;;;;;;;;;;36.94;42.38;97245.34;4864187;29;20092;-66
2022/06/10 05:16:12;;;;;;;63.85;13.80;;;;;;;36.93;44.04;97243.72;4870880;29;19931;-65
2022/06/10 05:18:55;;;;;;;73.50;14.73;;;;;;;37.21;43.76;97246.22;4870230;29;20109;-66
2022/06/10 05:21:44;;;;;;;71.40;13.38;;;;;;;37.72;41.69;97244.13;4852875;29;20145;-62
2022/06/10 05:24:26;;;;;;;73.82;13.75;;;;;;;37.87;44.46;97233.50;4856451;29;20058;-64
2022/06/10 05:27:21;;;;;;;78.93;13.60;;;;;;;37.69;42.98;97236.56;4840768;29;20110;-63
2022/06/10 05:29:57;;;;;;;76.13;13.80;;;;;;;37.75;44.34;97238.25;4843209;29;20082;-64
2022/06/10 05:32:46;;;;;;;61.85;13.18;;;;;;;37.85;43.70;97236.44;4844381;29;20049;-64
2022/06/10 05:35:27;;;;;;;67.25;12.10;;;;;;;38.01;45.01;97234.69;4852122;29;20148;-64
2022/06/10 05:38:17;;;;;;;53.08;12.75;;;;;;;38.43;44.59;97228.56;4842061;29;20057;-65
2022/06/10 05:44:09;;;;;;;71.53;12.07;;;;;;;38.78;43.31;97223.44;4831035;29;20054;-66
2022/06/10 05:47:01;;;;;;;68.32;13.73;;;;;;;39.08;41.48;97217.38;4851705;29;20452;-65
2022/06/10 05:49:53;;;;;;;60.08;12.77;;;;;;;39.25;42.38;97211.78;4844500;29;20142;-64
2022/06/10 05:52:41;;;;;;;82.20;13.55;;;;;;;39.56;44.11;97218.91;4833265;29;20549;-64
2022/06/10 05:55:24;;;;;;;57.92;12.40;;;;;;;39.90;43.76;97207.63;4849356;29;20064;-64
2022/06/10 05:58:19;;;;;;;48.17;10.00;;;;;;;40.02;42.94;97205.47;4833401;29;20140;-64
2022/06/10 06:01:01;;;;;;;49.78;9.68;;;;;;;40.09;44.52;97209.50;4836353;29;20045;-64
2022/06/10 06:03:50;;;;;;;54.30;10.88;;;;;;;40.23;43.15;97215.16;4846971;29;20472;-65
2022/06/10 06:06:33;;;;;;;44.30;9.95;;;;;;;40.14;37.88;97211.41;4843550;29;20060;-63
2022/06/10 06:09:21;;;;;;;60.78;9.88;;;;;;;40.20;38.04;97207.63;4849460;29;20106;-65
2022/06/10 06:12:04;;;;;;;57.72;8.98;;;;;;;40.49;40.48;97208.66;4833151;29;20050;-65
2022/06/10 06:14:52;;;;;;;39.53;6.90;;;;;;;40.61;36.58;97212.97;4846347;29;20066;-65
2022/06/10 06:17:42;;;;;;;51.80;9.23;;;;;;;40.59;37.09;97215.13;4839893;29;20406;-65
2022/06/10 06:20:30;;;;;;;43.47;6.90;;;;;;;40.56;39.84;97210.25;4846342;29;20061;-64
2022/06/10 06:23:20;;;;;;;43.55;9.20;;;;;;;40.53;37.79;97201.66;4852313;29;20060;-64
2022/06/10 06:26:19;;;;;;;56.38;10.85;;;;;;;40.69;39.34;97198.94;4866698;29;20143;-65
2022/06/10 06:29:14;;;;;;;54.85;9.20;;;;;;;40.75;41.08;97190.53;4889786;29;20100;-65
2022/06/10 06:32:10;;;;;;;52.47;9.75;;;;;;;40.77;34.62;97184.84;4889420;29;20107;-64
2022/06/10 06:34:46;;;;;;;54.60;8.45;;;;;;;40.72;38.52;97182.16;4888631;29;20627;-65
2022/06/10 06:37:35;;;;;;;66.03;10.00;;;;;;;40.66;39.42;97177.81;4886426;29;20139;-64
2022/06/10 06:40:18;;;;;;;36.87;8.57;;;;;;;40.70;35.51;97178.94;4854904;29;20654;-65
2022/06/10 06:43:08;;;;;;;65.10;9.93;;;;;;;40.62;35.15;97182.19;4826437;29;20060;-65
2022/06/10 06:45:51;;;;;;;50.13;8.68;;;;;;;40.72;36.98;97161.34;4873006;29;20056;-64
2022/06/10 06:48:41;;;;;;;62.60;9.00;;;;;;;40.70;36.72;97170.81;4856323;29;20105;-64
2022/06/10 06:51:24;;;;;;;57.75;10.23;;;;;;;40.77;39.07;97169.44;4869587;29;20133;-63
2022/06/10 06:54:12;;;;;;;61.25;10.77;;;;;;;40.68;37.87;97165.69;4867447;29;20053;-63
2022/06/10 06:57:01;;;;;;;50.17;9.23;;;;;;;40.91;36.17;97164.25;4864896;29;20112;-63
2022/06/10 06:59:43;;;;;;;60.03;9.30;;;;;;;40.89;35.53;97163.72;4864910;29;20049;-64
2022/06/10 07:02:32;;;;;;;49.60;8.63;;;;;;;40.93;37.58;97161.28;4858550;29;20750;-63
2022/06/10 07:05:14;;;;;;;56.80;8.80;;;;;;;41.00;39.32;97151.78;4866522;29;20573;-63
2022/06/10 07:08:04;;;;;;;43.28;7.18;;;;;;;40.95;35.17;97157.19;4862625;29;20164;-64
2022/06/10 07:10:47;;;;;;;32.05;6.78;;;;;;;41.03;35.62;97153.91;4847418;29;20797;-64
2022/06/10 07:13:35;;;;;;;44.10;7.50;;;;;;;40.80;32.78;97154.56;4863616;29;20045;-64
2022/06/10 07:16:17;;;;;;;46.77;7.03;;;;;;;40.98;33.85;97153.13;4865607;29;20825;-64
2022/06/10 07:19:06;;;;;;;48.10;7.53;;;;;;;40.99;36.83;97144.75;4868063;29;20088;-64
2022/06/10 07:21:49;;;;;;;51.83;8.03;;;;;;;41.00;36.86;97146.38;4865749;29;20129;-64
2022/06/10 07:24:39;;;;;;;46.22;6.93;;;;;;;41.13;36.01;97145.78;4853512;29;20054;-66
2022/06/10 07:27:27;;;;;;;;;;;;;;;41.05;34.20;97143.63;4865852;29;20153;-64
2022/06/10 07:30:24;;;;;;;51.83;7.32;;;;;;;40.95;37.01;97135.56;4836090;29;20384;-64
2022/06/10 07:33:00;;;;;;;46.70;8.75;;;;;;;41.01;39.35;97141.78;4836223;29;20056;-64
2022/06/10 07:35:50;;;;;;;49.50;7.88;;;;;;;41.13;34.99;97140.38;4847679;29;20687;-64
2022/06/10 07:38:39;;;;;;;54.85;7.72;;;;;;;40.96;35.38;97139.88;4843165;29;20117;-63
2022/06/10 07:44:29;;;;;;;71.63;9.73;;;;;;;40.95;35.72;97127.44;4835129;29;20065;-64
2022/06/10 07:47:13;;;;;;;55.15;9.27;;;;;;;40.96;34.88;97115.56;4833559;29;20062;-63
2022/06/10 07:50:02;;;;;;;52.30;8.20;;;;;;;41.02;35.73;97117.16;4832400;29;20159;-64
2022/06/10 07:52:44;;;;;;;53.58;10.32;;;;;;;40.98;33.74;97116.09;4827039;29;20050;-64
2022/06/10 07:55:33;;;;;;;56.85;11.43;;;;;;;40.90;35.97;97109.38;4828505;29;20149;-64
2022/06/10 07:58:17;;;;;;;61.97;8.43;;;;;;;40.94;34.13;97125.88;4830092;29;20581;-64
2022/06/10 08:01:06;;;;;;;48.55;7.97;;;;;;;40.93;33.00;97118.84;4829287;29;20050;-64
2022/06/10 08:03:49;;;;;;;44.30;7.85;;;;;;;40.90;33.63;97114.78;4834896;29;21013;-63
2022/06/10 08:06:37;;;;;;;64.47;9.52;;;;;;;40.89;35.32;97107.75;4825696;29;20111;-63
2022/06/10 08:09:26;;;;;;;52.08;8.25;;;;;;;40.89;35.57;97102.34;4827295;29;20130;-63
2022/06/10 08:12:09;;;;;;;74.10;9.13;;;;;;;40.87;35.35;97101.81;4824623;29;20042;-65
2022/06/10 08:14:57;;;;;;;61.20;8.35;;;;;;;40.83;32.76;97102.66;4833068;29;20057;-65
2022/06/10 08:17:39;;;;;;;40.08;7.22;;;;;;;40.87;31.23;97109.13;4830069;29;20057;-65
2022/06/10 08:23:43;;;;;;;44.78;8.10;;;;;;;40.85;34.04;97089.69;4834449;29;20124;-63
2022/06/10 08:26:34;;;;;;;48.08;9.23;;;;;;;40.80;36.18;97092.41;4853582;29;20053;-64
2022/06/10 08:29:24;;;;;;;59.95;9.27;;;;;;;40.68;35.39;97073.03;4843231;29;20049;-62
2022/06/10 08:32:18;;;;;;;66.70;9.50;;;;;;;40.47;35.49;97078.50;4844648;29;20045;-63
2022/06/10 08:34:54;;;;;;;47.55;9.38;;;;;;;40.53;36.31;97082.00;4843787;29;20399;-63
2022/06/10 08:37:48;;;;;;;42.47;9.70;;;;;;;40.57;33.67;97074.94;4848311;29;20061;-64
2022/06/10 08:40:58;;;;;;;57.00;9.48;;;;;;;40.53;35.11;97069.31;4852117;29;20057;-63
2022/06/10 08:44:04;;;;;;;43.72;7.45;;;;;;;40.49;34.36;97065.53;4824524;29;20138;-63
2022/06/10 08:47:34;;;;;;;45.38;7.80;;;;;;;40.55;31.31;97073.63;4848507;29;20064;-63
2022/06/10 08:50:23;;;;;;;43.30;7.20;;;;;;;40.58;31.56;97059.53;4847675;29;20462;-65
2022/06/10 08:53:24;;;;;;;57.40;11.13;;;;;;;40.56;32.71;97057.13;4849853;29;20137;-64
2022/06/10 08:56:26;;;;;;;54.47;9.70;;;;;;;40.49;32.60;97054.72;4848854;29;20433;-63
2022/06/10 08:59:17;;;;;;;58.15;9.02;;;;;;;40.50;33.88;97045.53;4837445;29;20053;-62
2022/06/10 09:02:17;;;;;;;52.15;9.40;;;;;;;40.53;32.01;97050.41;4845623;29;20053;-63
2022/06/10 09:05:26;;;;;;;42.70;6.60;;;;;;;40.55;30.24;97049.31;4848847;29;20133;-61
2022/06/10 09:08:18;;;;;;;40.45;7.50;;;;;;;40.47;31.85;97032.56;4845866;29;20430;-62
2022/06/10 09:11:09;;;;;;;40.83;8.02;;;;;;;40.47;31.18;97035.28;4847900;29;20481;-63
2022/06/10 09:14:16;;;;;;;38.95;8.35;;;;;;;40.50;31.41;97040.13;4851359;29;20045;-63
2022/06/10 09:17:14;;;;;;;57.25;8.85;;;;;;;40.47;30.75;97040.69;4853532;29;20049;-62
2022/06/10 09:20:24;;;;;;;48.67;7.65;;;;;;;40.46;31.78;97024.78;4852950;29;20053;-64
2022/06/10 09:23:21;;;;;;;40.13;7.30;;;;;;;40.46;31.35;97022.88;4849848;29;20120;-63
2022/06/10 09:26:19;;;;;;;43.42;6.03;;;;;;;40.41;30.21;97025.59;4852754;29;20064;-63
2022/06/10 09:29:02;;;;;;;37.50;6.88;;;;;;;40.40;32.34;97023.97;4853437;29;20457;-64
2022/06/10 09:32:16;;;;;;;58.00;7.78;;;;;;;40.32;31.82;97016.44;4866803;29;20073;-62
2022/06/10 09:35:00;;;;;;;56.88;7.28;;;;;;;40.36;31.48;97012.13;4871822;29;20112;-62
2022/06/10 09:38:12;;;;;;;46.30;6.00;;;;;;;40.24;31.28;97008.91;4855355;29;20049;-62
2022/06/10 09:41:15;;;;;;;44.90;7.22;;;;;;;40.20;32.55;97007.84;4870926;29;20074;-63
2022/06/10 09:44:17;;;;;;;49.20;6.78;;;;;;;40.11;32.78;96993.31;4866466;29;20117;-63
2022/06/10 09:47:11;;;;;;;60.60;7.75;;;;;;;40.01;31.80;96994.16;4871666;29;20084;-62
2022/06/10 09:50:27;;;;;;;41.72;7.57;;;;;;;40.17;31.62;96989.50;4870464;29;20081;-62
2022/06/10 09:53:14;;;;;;;43.90;6.55;;;;;;;40.13;32.13;96978.47;4858030;29;20487;-64
2022/06/10 09:56:20;;;;;;;55.45;8.57;;;;;;;40.11;32.76;96969.03;4890398;29;20048;-63
2022/06/10 09:59:15;;;;;;;57.33;9.02;;;;;;;39.99;34.50;96960.44;4889659;29;20036;-62
2022/06/10 10:02:29;;;;;;;63.58;7.30;;;;;;;39.92;34.86;96963.41;4878294;29;20148;-63
2022/06/10 10:05:05;;;;;;;48.63;7.97;;;;;;;39.92;32.79;96952.63;4870896;29;20053;-62
2022/06/10 10:08:23;;;;;;;61.88;8.55;;;;;;;39.86;33.82;96952.94;4864689;29;20049;-62
2022/06/10 10:11:16;;;;;;;59.33;8.65;;;;;;;39.86;33.89;96945.66;4870278;29;20045;-62
2022/06/10 10:14:26;;;;;;;50.45;9.00;;;;;;;39.82;34.04;96941.09;4871057;29;20116;-63
2022/06/10 10:17:21;;;;;;;49.40;7.00;;;;;;;39.73;34.86;96938.94;4870586;29;20060;-63
2022/06/10 10:20:24;;;;;;;48.60;8.15;;;;;;;39.66;34.60;96927.63;4870937;29;20057;-64
2022/06/10 10:23:30;;;;;;;53.60;7.72;;;;;;;39.71;33.21;96918.69;4854209;29;20113;-64
2022/06/10 10:26:37;;;;;;;49.17;7.20;;;;;;;39.83;33.29;96915.72;4870715;29;20045;-63
2022/06/10 10:29:26;;;;;;;55.70;8.20;;;;;;;39.78;34.40;96917.31;4869478;29;20434;-64
2022/06/10 10:32:27;;;;;;;56.25;8.23;;;;;;;39.64;35.17;96910.09;4865432;29;20072;-65
2022/06/10 10:35:23;;;;;;;40.05;6.50;;;;;;;39.64;35.55;96897.41;4852396;29;20073;-63
2022/06/10 10:38:12;;;;;;;53.05;7.80;;;;;;;39.58;34.04;96898.53;4845881;29;20050;-64
2022/06/10 10:41:12;;;;;;;50.00;7.78;;;;;;;39.70;32.01;96899.00;4833912;29;20114;-62
2022/06/10 10:44:30;;;;;;;41.38;8.13;;;;;;;39.57;33.39;96891.50;4838159;29;20084;-64
2022/06/10 10:47:12;;;;;;;44.28;6.57;;;;;;;39.55;35.05;96885.59;4856888;29;20057;-63
2022/06/10 10:50:13;;;;;;;46.92;7.65;;;;;;;39.59;34.15;96883.94;4851621;29;20041;-63
2022/06/10 10:52:57;;;;;;;57.85;7.88;;;;;;;39.72;32.85;96880.66;4850734;29;20046;-65
2022/06/10 10:55:47;;;;;;;51.67;7.20;;;;;;;39.77;32.42;96888.72;4854441;29;20149;-66
2022/06/10 10:59:03;;;;;;;54.67;7.30;;;;;;;39.63;31.96;96879.63;4860259;29;20057;-63
2022/06/10 11:01:44;;;;;;;55.25;8.15;;;;;;;39.63;32.38;96879.63;4849003;29;20045;-63
2022/06/10 11:04:40;;;;;;;52.22;7.25;;;;;;;39.57;33.04;96871.84;4849405;29;20140;-66
2022/06/10 11:07:28;;;;;;;53.78;9.20;;;;;;;39.56;32.27;96875.59;4855855;29;20053;-68
2022/06/10 11:10:22;;;;;;;46.58;6.47;;;;;;;39.54;32.57;96865.09;4836791;29;20061;-65
2022/06/10 11:13:14;;;;;;;56.35;8.55;;;;;;;39.51;31.63;96867.53;4849038;29;20124;-65
2022/06/10 11:16:38;;;;;;;53.83;7.45;;;;;;;39.51;33.17;96860.25;4836611;29;20441;-65
2022/06/10 11:19:44;;;;;;;53.80;8.32;;;;;;;39.53;32.76;96863.47;4817362;29;20080;-65
2022/06/10 11:22:44;;;;;;;50.20;8.27;;;;;;;39.34;34.26;96860.56;4873352;29;20064;-64
2022/06/10 11:25:24;;;;;;;44.55;6.72;;;;;;;39.21;35.81;96852.22;4873043;29;20049;-65
2022/06/10 11:28:22;;;;;;;43.67;7.03;;;;;;;39.15;34.00;96853.31;4872666;29;20140;-64
2022/06/10 11:31:09;;;;;;;68.10;8.23;;;;;;;39.14;34.38;96859.78;4873554;29;20045;-64
2022/06/10 11:34:06;;;;;;;36.83;6.13;;;;;;;38.96;37.16;96845.00;4872890;29;20073;-64
2022/06/10 11:36:52;;;;;;;45.67;8.00;;;;;;;38.94;34.15;96842.59;4868567;29;20153;-65
2022/06/10 11:39:50;;;;;;;50.55;8.75;;;;;;;38.87;35.50;96844.75;4862023;29;20053;-65
2022/06/10 11:42:53;;;;;;;56.80;9.00;;;;;;;38.93;35.56;96842.84;4854469;29;20060;-65
2022/06/10 11:45:48;;;;;;;76.67;9.57;;;;;;;38.99;33.75;96849.84;4855365;29;20066;-65
2022/06/10 11:48:49;;;;;;;56.60;7.82;;;;;;;38.96;35.84;96832.34;4854744;29;20125;-66
2022/06/10 11:51:51;;;;;;;55.60;8.43;;;;;;;38.94;34.99;96834.50;4854462;29;20061;-66
2022/06/10 11:55:11;;;;;;;48.80;7.93;;;;;;;38.60;34.18;96836.94;4854790;29;20077;-65
2022/06/10 12:01:14;;;;;;;52.72;7.38;;;;;;;38.62;35.94;96836.69;4854559;29;20053;-65
2022/06/10 12:04:03;;;;;;;39.15;7.25;;;;;;;38.50;35.95;96839.63;4854678;29;20061;-63
2022/06/10 12:07:02;;;;;;;60.15;8.90;;;;;;;38.43;37.14;96839.06;4853813;29;20049;-64
2022/06/10 12:09:50;;;;;;;39.55;6.72;;;;;;;38.32;38.61;96832.03;4854481;29;20137;-63
2022/06/10 12:12:47;;;;;;;59.90;8.45;;;;;;;38.40;34.84;96836.09;4854249;29;20156;-64
2022/06/10 12:15:36;;;;;;;56.45;8.13;;;;;;;38.33;37.12;96841.75;4853934;29;20766;-63
2022/06/10 12:18:24;;;;;;;56.72;8.43;;;;;;;38.41;36.12;96835.00;4854245;29;20125;-63
2022/06/10 12:21:06;;;;;;;48.53;8.85;;;;;;;38.26;38.20;96844.69;4854521;29;20144;-63
2022/06/10 12:23:56;;;;;;;36.80;8.13;;;;;;;38.16;38.67;96841.19;4853275;29;20073;-63
2022/06/10 12:26:56;;;;;;;;;;;;;;;38.06;37.43;96847.38;4836578;29;20492;-64
2022/06/10 12:30:04;;;;;;;55.00;8.27;;;;;;;38.12;36.83;96845.50;4835920;29;20420;-64
2022/06/10 12:33:24;;;;;;;64.97;9.75;;;;;;;38.12;36.10;96850.88;4835063;29;20062;-65
2022/06/10 12:36:30;;;;;;;44.08;8.48;;;;;;;38.28;36.17;96853.31;4864430;29;20443;-64
2022/06/10 12:39:19;;;;;;;52.65;8.35;;;;;;;38.17;36.86;96851.69;4875500;29;20053;-64
2022/06/10 12:42:55;;;;;;;57.65;8.13;;;;;;;38.13;38.22;96860.56;4863757;29;20061;-68
2022/06/10 12:45:57;;;;;;;60.35;10.02;;;;;;;38.07;39.20;96862.44;4529287;29;10001131;-70
2022/06/10 12:48:46;;;;;;;63.30;8.88;;;;;;;38.05;39.84;96863.78;4852512;29;20057;-68
2022/06/10 12:51:43;;;;;;;56.40;10.73;;;;;;;38.09;38.94;96859.47;4509675;29;10000274;-66
2022/06/10 12:54:43;;;;;;;77.35;9.25;;;;;;;38.18;36.89;96868.63;4882560;29;20055;-66
2022/06/10 12:57:40;;;;;;;58.45;10.52;;;;;;;38.08;38.56;96865.91;4883378;29;20144;-66
2022/06/10 13:00:38;;;;;;;65.10;8.38;;;;;;;38.00;38.50;96856.44;4851186;29;20676;-65
2022/06/10 13:03:19;;;;;;;68.03;9.18;;;;;;;37.95;38.06;96867.22;4846227;29;20057;-66
2022/06/10 13:06:27;;;;;;;46.38;9.48;;;;;;;37.87;38.94;96873.09;4850593;29;20069;-64
2022/06/10 13:09:18;;;;;;;53.47;8.70;;;;;;;37.80;36.75;96875.22;4864973;29;20109;-64
2022/06/10 13:12:07;;;;;;;57.30;10.55;;;;;;;37.84;36.00;96879.00;4862968;29;20143;-65
2022/06/10 13:15:07;;;;;;;59.45;11.38;;;;;;;37.73;38.43;96880.84;4860544;29;20429;-65
2022/06/10 13:18:25;;;;;;;53.13;10.30;;;;;;;37.58;37.94;96879.97;4861164;29;20473;-65
2022/06/10 13:21:16;;;;;;;49.78;8.73;;;;;;;37.39;40.59;96880.41;4854291;29;20049;-65
2022/06/10 13:24:20;;;;;;;61.38;11.45;;;;;;;37.20;40.47;96884.56;4851248;29;20045;-64
2022/06/10 13:27:12;;;;;;;59.38;8.77;;;;;;;37.11;37.22;96897.69;4850114;29;20473;-65
2022/06/10 13:30:20;;;;;;;60.55;9.85;;;;;;;37.10;38.00;96889.88;4850773;29;20533;-64
2022/06/10 13:33:10;;;;;;;57.88;9.63;;;;;;;37.10;37.92;96901.44;4854642;29;20057;-67
2022/06/10 13:36:05;;;;;;;52.28;9.10;;;;;;;37.12;36.82;96914.59;4861144;29;20123;-65
2022/06/10 13:39:04;;;;;;;57.33;9.30;;;;;;;37.05;36.84;96908.63;4875526;29;20075;-65
2022/06/10 13:41:49;;;;;;;60.40;9.63;;;;;;;37.07;37.18;96907.31;4872666;29;20049;-66
2022/06/10 13:44:44;;;;;;;41.65;9.43;;;;;;;37.01;36.66;96902.16;4872553;29;20056;-67